createdAt,value
2018-09-09T00:04:53.396Z,13.94
2018-09-09T00:09:56.627Z,13.90
2018-09-09T00:14:54.774Z,13.92
2018-09-09T00:19:52.171Z,14.09
2018-09-09T00:24:49.671Z,14.21
2018-09-09T00:29:47.063Z,14.30
2018-09-09T00:34:44.472Z,14.34
2018-09-09T00:39:52.155Z,14.29
2018-09-09T00:44:49.551Z,14.33
2018-09-09T00:49:53.359Z,14.23
2018-09-09T00:54:50.732Z,14.76
2018-09-09T00:59:48.106Z,14.44
2018-09-09T01:04:45.567Z,14.11
2018-09-09T01:09:55.736Z,13.99
2018-09-09T01:14:53.117Z,14.08
2018-09-09T01:19:50.487Z,13.70
2018-09-09T01:24:47.858Z,13.67
2018-09-09T01:29:45.243Z,13.68
2018-09-09T01:34:42.662Z,13.59
2018-09-09T01:39:50.070Z,14.07
2018-09-09T01:44:47.439Z,13.71
2018-09-09T01:49:44.923Z,13.66
2018-09-09T01:54:42.347Z,13.70
2018-09-09T01:59:39.719Z,13.86
2018-09-09T02:04:37.142Z,13.74
2018-09-09T02:09:44.718Z,13.64
2018-09-09T02:14:42.174Z,13.61
2018-09-09T02:19:39.583Z,13.60
2018-09-09T02:24:36.963Z,13.49
2018-09-09T02:29:34.623Z,13.84
2018-09-09T02:34:31.995Z,13.46
2018-09-09T02:39:36.149Z,13.33
2018-09-09T02:44:33.778Z,13.53
2018-09-09T02:49:31.152Z,13.55
2018-09-09T02:54:28.531Z,13.92
2018-09-09T02:59:25.926Z,13.44
2018-09-09T03:04:23.316Z,13.62
2018-09-09T03:09:29.695Z,13.72
2018-09-09T03:14:27.292Z,13.44
2018-09-09T03:19:24.685Z,13.38
2018-09-09T03:24:22.072Z,13.79
2018-09-09T03:29:19.447Z,13.40
2018-09-09T03:34:16.832Z,13.20
2018-09-09T03:39:24.857Z,13.02
2018-09-09T03:44:22.328Z,13.05
2018-09-09T03:49:19.711Z,13.02
2018-09-09T03:54:17.395Z,13.06
2018-09-09T03:59:14.778Z,13.13
2018-09-09T04:04:12.160Z,13.16
2018-09-09T04:09:13.393Z,13.25
2018-09-09T04:14:10.896Z,13.24
2018-09-09T04:19:08.249Z,13.37
2018-09-09T04:24:06.591Z,13.45
2018-09-09T04:29:03.993Z,13.53
2018-09-09T04:34:01.412Z,13.27
2018-09-09T04:38:58.839Z,13.45
2018-09-09T04:43:56.380Z,13.37
2018-09-09T04:48:53.804Z,13.08
2018-09-09T04:53:51.261Z,13.34
2018-09-09T04:58:49.355Z,13.29
2018-09-09T05:03:47.694Z,13.00
2018-09-09T05:08:45.204Z,12.80
2018-09-09T05:13:42.586Z,12.72
2018-09-09T05:18:40.203Z,12.72
2018-09-09T05:23:37.610Z,13.15
2018-09-09T05:28:34.999Z,12.96
2018-09-09T05:33:32.471Z,13.05
2018-09-09T05:38:29.851Z,13.17
2018-09-09T05:43:27.339Z,13.48
2018-09-09T05:48:24.776Z,14.10
2018-09-09T05:53:22.210Z,13.80
2018-09-09T05:58:20.079Z,14.38
2018-09-09T06:03:18.105Z,15.15
2018-09-09T06:08:16.142Z,15.78
2018-09-09T06:13:13.563Z,15.34
2018-09-09T06:18:11.031Z,14.93
2018-09-09T06:23:08.439Z,15.01
2018-09-09T06:28:05.823Z,14.98
2018-09-09T06:33:03.210Z,15.14
2018-09-09T06:38:00.591Z,15.48
2018-09-09T06:42:57.994Z,15.72
2018-09-09T06:47:55.411Z,15.84
2018-09-09T06:52:52.831Z,15.99
2018-09-09T06:57:50.235Z,16.23
2018-09-09T07:02:47.619Z,16.53
2018-09-09T07:07:45.055Z,16.71
2018-09-09T07:12:42.531Z,16.94
2018-09-09T07:17:39.934Z,17.08
2018-09-09T07:22:37.402Z,17.16
2018-09-09T07:27:34.763Z,17.26
2018-09-09T07:32:32.153Z,17.34
2018-09-09T07:37:29.560Z,17.30
2018-09-09T07:42:26.963Z,17.73
2018-09-09T07:47:24.373Z,18.56
2018-09-09T07:52:22.599Z,18.77
2018-09-09T07:57:20.024Z,19.02
2018-09-09T08:02:17.435Z,18.99
2018-09-09T08:07:14.834Z,19.11
2018-09-09T08:12:12.384Z,18.62
2018-09-09T08:17:10.210Z,18.46
2018-09-09T08:22:07.652Z,18.97
2018-09-09T08:27:05.147Z,19.04
2018-09-09T08:32:03.495Z,19.42
2018-09-09T08:37:00.911Z,19.50
2018-09-09T08:41:58.401Z,19.02
2018-09-09T08:46:55.795Z,19.36
2018-09-09T08:51:53.273Z,19.46
2018-09-09T08:56:50.662Z,19.61
2018-09-09T09:01:48.062Z,19.58
2018-09-09T09:06:45.471Z,20.35
2018-09-09T09:11:42.924Z,20.65
2018-09-09T09:16:40.319Z,21.46
2018-09-09T09:21:37.727Z,21.07
2018-09-09T09:26:35.330Z,21.12
2018-09-09T09:31:32.831Z,20.59
2018-09-09T09:36:30.224Z,19.85
2018-09-09T09:41:27.670Z,20.37
2018-09-09T09:46:25.093Z,20.33
2018-09-09T09:51:22.528Z,20.48
2018-09-09T09:56:19.915Z,20.62
2018-09-09T10:01:17.366Z,20.68
2018-09-09T10:06:14.768Z,21.50
2018-09-09T10:11:12.190Z,21.97
2018-09-09T10:16:09.602Z,22.78
2018-09-09T10:21:07.014Z,23.13
2018-09-09T10:26:04.387Z,23.19
2018-09-09T10:31:01.770Z,21.97
2018-09-09T10:35:59.192Z,22.06
2018-09-09T10:40:56.613Z,21.52
2018-09-09T10:45:54.043Z,21.26
2018-09-09T10:50:51.450Z,21.75
2018-09-09T10:55:48.939Z,21.57
2018-09-09T11:00:46.400Z,21.69
2018-09-09T11:05:43.798Z,22.21
2018-09-09T11:10:41.288Z,22.15
2018-09-09T11:15:38.742Z,22.39
2018-09-09T11:20:36.167Z,22.78
2018-09-09T11:25:33.625Z,22.38
2018-09-09T11:30:31.005Z,23.05
2018-09-09T11:35:28.669Z,23.71
2018-09-09T11:40:26.645Z,23.55
2018-09-09T11:45:24.040Z,23.68
2018-09-09T11:50:21.455Z,22.28
2018-09-09T11:55:18.886Z,22.23
2018-09-09T12:00:16.390Z,23.54
2018-09-09T12:05:13.828Z,24.26
2018-09-09T12:10:12.329Z,23.19
2018-09-09T12:15:09.786Z,24.13
2018-09-09T12:20:07.199Z,23.96
2018-09-09T12:25:04.619Z,23.17
2018-09-09T12:30:02.065Z,22.83
2018-09-09T12:34:59.465Z,23.92
2018-09-09T12:39:58.070Z,24.06
2018-09-09T12:45:01.127Z,22.72
2018-09-09T12:49:58.516Z,23.30
2018-09-09T12:54:55.917Z,22.21
2018-09-09T12:59:53.376Z,22.69
2018-09-09T13:04:50.779Z,23.62
2018-09-09T13:09:50.898Z,23.27
2018-09-09T13:14:48.484Z,24.72
2018-09-09T13:19:45.881Z,25.38
2018-09-09T13:24:43.295Z,24.81
2018-09-09T13:29:40.720Z,25.49
2018-09-09T13:34:38.126Z,23.88
2018-09-09T13:39:41.317Z,24.14
2018-09-09T13:44:39.244Z,23.76
2018-09-09T13:49:37.132Z,24.21
2018-09-09T13:54:34.539Z,24.42
2018-09-09T13:59:32.243Z,24.17
2018-09-09T14:04:29.668Z,24.88
2018-09-09T14:09:33.435Z,23.50
2018-09-09T14:14:31.252Z,23.84
2018-09-09T14:19:28.652Z,23.74
2018-09-09T14:24:26.067Z,24.57
2018-09-09T14:29:23.474Z,24.23
2018-09-09T14:34:20.965Z,24.46
2018-09-09T14:39:18.379Z,25.25
2018-09-09T14:44:15.786Z,24.36
2018-09-09T14:49:13.208Z,24.12
2018-09-09T14:54:10.607Z,23.97
2018-09-09T14:59:08.044Z,23.61
2018-09-09T15:04:05.487Z,23.54
2018-09-09T15:09:03.712Z,24.28
2018-09-09T15:14:01.099Z,25.09
2018-09-09T15:18:58.510Z,25.70
2018-09-09T15:23:55.890Z,25.38
2018-09-09T15:28:53.411Z,24.27
2018-09-09T15:33:51.195Z,23.83
2018-09-09T15:38:48.599Z,24.50
2018-09-09T15:43:46.018Z,24.74
2018-09-09T15:48:43.418Z,24.77
2018-09-09T15:53:40.834Z,24.62
2018-09-09T15:58:38.255Z,24.47
2018-09-09T16:03:35.688Z,24.94
2018-09-09T16:08:33.135Z,24.61
2018-09-09T16:13:30.540Z,24.04
2018-09-09T16:18:27.932Z,24.04
2018-09-09T16:23:25.369Z,23.79
2018-09-09T16:28:22.776Z,24.01
2018-09-09T16:33:20.191Z,23.99
2018-09-09T16:38:17.591Z,24.03
2018-09-09T16:43:14.988Z,25.00
2018-09-09T16:48:12.423Z,24.95
2018-09-09T16:53:09.826Z,25.64
2018-09-09T16:58:07.492Z,25.34
2018-09-09T17:03:04.939Z,25.08
2018-09-09T17:08:03.215Z,25.18
2018-09-09T17:13:00.636Z,24.13
2018-09-09T17:17:58.071Z,23.72
2018-09-09T17:22:55.500Z,23.28
2018-09-09T17:27:52.914Z,22.95
2018-09-09T17:32:50.304Z,22.75
2018-09-09T17:37:47.732Z,22.25
2018-09-09T17:42:45.193Z,21.54
2018-09-09T17:47:42.602Z,21.26
2018-09-09T17:52:40.016Z,21.00
2018-09-09T17:57:44.161Z,20.40
2018-09-09T18:02:41.587Z,20.04
2018-09-09T18:07:39.006Z,19.70
2018-09-09T18:12:36.539Z,19.32
2018-09-09T18:17:34.065Z,19.01
2018-09-09T18:22:31.423Z,18.94
2018-09-09T18:27:28.872Z,18.59
2018-09-09T18:32:26.292Z,18.29
2018-09-09T18:37:23.667Z,18.08
2018-09-09T18:42:21.042Z,17.93
2018-09-09T18:47:18.410Z,17.79
2018-09-09T18:52:15.819Z,17.58
2018-09-09T18:57:13.287Z,17.43
2018-09-09T19:02:10.683Z,17.20
2018-09-09T19:07:08.089Z,17.02
2018-09-09T19:12:05.486Z,16.78
2018-09-09T19:17:03.216Z,16.74
2018-09-09T19:22:00.681Z,16.66
2018-09-09T19:26:58.040Z,16.48
2018-09-09T19:31:55.461Z,16.32
2018-09-09T19:36:52.957Z,16.14
2018-09-09T19:41:50.339Z,15.89
2018-09-09T19:46:47.756Z,15.70
2018-09-09T19:51:45.168Z,15.58
2018-09-09T19:56:42.579Z,15.48
2018-09-09T20:01:40.200Z,15.31
2018-09-09T20:06:37.597Z,15.21
2018-09-09T20:11:35.031Z,15.50
2018-09-09T20:16:32.448Z,15.21
2018-09-09T20:21:29.883Z,15.08
2018-09-09T20:26:27.312Z,14.97
2018-09-09T20:31:24.712Z,14.89
2018-09-09T20:36:22.333Z,14.94
2018-09-09T20:41:19.762Z,14.98
2018-09-09T20:46:17.152Z,14.73
2018-09-09T20:51:14.561Z,14.60
2018-09-09T20:56:11.952Z,14.55
2018-09-09T21:01:09.347Z,14.29
2018-09-09T21:06:06.759Z,14.31
2018-09-09T21:11:04.166Z,14.14
2018-09-09T21:16:01.547Z,14.00
2018-09-09T21:20:58.922Z,13.89
2018-09-09T21:25:56.456Z,13.74
2018-09-09T21:30:53.800Z,13.72
2018-09-09T21:35:51.719Z,13.87
2018-09-09T21:40:49.204Z,13.89
2018-09-09T21:45:46.587Z,13.74
2018-09-09T21:50:43.981Z,13.85
2018-09-09T21:55:42.312Z,13.78
2018-09-09T22:00:45.324Z,14.21
2018-09-09T22:05:42.755Z,13.78
2018-09-09T22:10:40.144Z,14.25
2018-09-09T22:15:37.535Z,13.90
2018-09-09T22:20:34.918Z,14.07
2018-09-09T22:25:32.301Z,14.50
2018-09-09T22:30:29.704Z,13.87
2018-09-09T22:35:27.367Z,13.72
2018-09-09T22:40:24.807Z,13.63
2018-09-09T22:45:22.183Z,13.60
2018-09-09T22:50:19.563Z,13.73
2018-09-09T22:55:16.982Z,13.77
2018-09-09T23:00:14.395Z,13.89
2018-09-09T23:05:11.775Z,13.99
2018-09-09T23:10:10.222Z,14.04
2018-09-09T23:15:07.642Z,14.15
2018-09-09T23:20:05.092Z,14.36
2018-09-09T23:25:02.483Z,14.28
2018-09-09T23:29:59.858Z,14.42
2018-09-09T23:34:57.246Z,14.51
2018-09-09T23:39:55.779Z,14.54
2018-09-09T23:44:53.263Z,14.85
2018-09-09T23:49:50.651Z,14.65
2018-09-09T23:54:48.029Z,14.73
2018-09-09T23:59:45.411Z,14.73
